Castaert Cam Meer informatie Castaert Cam


scouting Meer informatie scouting


Bezoek onze andere website:


U vindt ons ook hier:

Het Weer Aktueel

European Weather Network

Weather Underground

WeatherlinkIP

HAMweather, WeatherForYou, PWS Weather



Het weer levert geen direct gevaar op.    Er zijn geen waarschuwingen afgegeven.

METAR rapporten vliegvelden

   
EHGR - Tilburg
Gewijzigd: 20-04-2018 00:55
Helder  
Helder  
   Wind: ZW 3.7 km/h
Wind: ZW 3.7 km/h
Temperatuur: 13°C
Dauwpunt: 10°C
Vochtigheid: 82%
Barometer: 1023 mb
Bewolking: Helder
Zicht: meer dan 10 km
Bewolking: Helder
EHGR 192255Z AUTO 23002KT 9999 NCD 13/10 Q1023 BLU
EHEH - Eindhoven
Gewijzigd: 20-04-2018 00:55
Helder  
Helder  
   Wind: ZZO 7.4 km/h
Wind: ZZO 7.4 km/h
Temperatuur: 15°C
Dauwpunt: 9°C
Vochtigheid: 68%
Barometer: 1023 mb
Bewolking: Helder
Zicht: meer dan 10 km
Bewolking: Helder
EHEH 192255Z AUTO 15004KT 150V210 9999 NCD 15/09 Q1023 BLU
EBBL - Olmen
Gewijzigd: 20-04-2018 00:55
Helder  
Helder  
   Wind: ZW 5.6 km/h
Wind: ZW 5.6 km/h
Temperatuur: 18°C
Dauwpunt: 8°C
Vochtigheid: 52%
Barometer: 1024 mb
Bewolking: Helder
Zicht: meer dan 10 km
Bewolking: Helder
EBBL 192255Z AUTO 22003KT 9999 NCD 18/08 Q1024 BLU
EDSB - Lachen
Gewijzigd: 19-04-2018 23:50
Verouderd
Helder  
Helder  
   Wind: NNO 9.3 km/h
Wind: NNO 9.3 km/h
Temperatuur: 16°C
Dauwpunt: 8°C
Vochtigheid: 59%
Barometer: 1024 mb
Zicht: meer dan 10 km
Bewolking: Helder
EDSB 192150Z 02005KT CAVOK 16/08 Q1024
  

Script ontwikkeld door  Saratoga-weather.org Aangepast voor de template door  Weerstation Leuven